sensor_id;sensor_type;location;lat;lon;timestamp;P1;durP1;ratioP1;P2;durP2;ratioP2
49942;SDS011;36011;53.362;58.948;2023-03-01T00:00:04;5.28;;;3.40;;
49942;SDS011;36011;53.362;58.948;2023-03-01T00:03:06;6.63;;;4.00;;
49942;SDS011;36011;53.362;58.948;2023-03-01T00:06:07;5.63;;;3.95;;
49942;SDS011;36011;53.362;58.948;2023-03-01T00:09:14;5.10;;;3.83;;
49942;SDS011;36011;53.362;58.948;2023-03-01T00:12:19;5.25;;;3.55;;
49942;SDS011;36011;53.362;58.948;2023-03-01T00:15:23;6.55;;;4.00;;
49942;SDS011;36011;53.362;58.948;2023-03-01T00:18:29;4.22;;;2.88;;
49942;SDS011;36011;53.362;58.948;2023-03-01T00:21:30;5.18;;;4.05;;
49942;SDS011;36011;53.362;58.948;2023-03-01T00:24:38;3.38;;;2.75;;
49942;SDS011;36011;53.362;58.948;2023-03-01T00:27:39;4.72;;;3.42;;
49942;SDS011;36011;53.362;58.948;2023-03-01T00:30:43;5.20;;;3.78;;
49942;SDS011;36011;53.362;58.948;2023-03-01T00:33:46;3.38;;;2.58;;
49942;SDS011;36011;53.362;58.948;2023-03-01T00:36:47;4.00;;;2.40;;
49942;SDS011;36011;53.362;58.948;2023-03-01T00:39:49;6.90;;;5.05;;
49942;SDS011;36011;53.362;58.948;2023-03-01T00:42:50;7.28;;;4.65;;
49942;SDS011;36011;53.362;58.948;2023-03-01T00:45:56;6.85;;;4.63;;
49942;SDS011;36011;53.362;58.948;2023-03-01T00:49:04;5.70;;;3.97;;
49942;SDS011;36011;53.362;58.948;2023-03-01T00:52:08;5.72;;;4.25;;
49942;SDS011;36011;53.362;58.948;2023-03-01T00:55:12;6.15;;;3.97;;
49942;SDS011;36011;53.362;58.948;2023-03-01T00:58:18;6.65;;;4.05;;
49942;SDS011;36011;53.362;58.948;2023-03-01T01:01:20;5.88;;;4.63;;
49942;SDS011;36011;53.362;58.948;2023-03-01T01:04:25;8.63;;;5.93;;
49942;SDS011;36011;53.362;58.948;2023-03-01T01:07:32;10.10;;;5.93;;
49942;SDS011;36011;53.362;58.948;2023-03-01T01:10:34;8.88;;;5.53;;
49942;SDS011;36011;53.362;58.948;2023-03-01T01:13:41;9.57;;;5.30;;
49942;SDS011;36011;53.362;58.948;2023-03-01T01:16:44;8.20;;;5.32;;
49942;SDS011;36011;53.362;58.948;2023-03-01T01:19:48;8.23;;;5.57;;
49942;SDS011;36011;53.362;58.948;2023-03-01T01:22:52;8.55;;;5.53;;
49942;SDS011;36011;53.362;58.948;2023-03-01T01:25:53;10.75;;;6.43;;
49942;SDS011;36011;53.362;58.948;2023-03-01T01:28:55;7.13;;;4.93;;
49942;SDS011;36011;53.362;58.948;2023-03-01T01:32:01;9.07;;;5.63;;
49942;SDS011;36011;53.362;58.948;2023-03-01T01:35:07;8.63;;;4.30;;
49942;SDS011;36011;53.362;58.948;2023-03-01T01:38:09;8.95;;;6.47;;
49942;SDS011;36011;53.362;58.948;2023-03-01T01:41:12;5.22;;;3.30;;
49942;SDS011;36011;53.362;58.948;2023-03-01T01:44:18;8.38;;;4.65;;
49942;SDS011;36011;53.362;58.948;2023-03-01T01:47:30;9.40;;;6.70;;
49942;SDS011;36011;53.362;58.948;2023-03-01T01:50:34;10.85;;;6.18;;
49942;SDS011;36011;53.362;58.948;2023-03-01T01:53:39;11.38;;;7.30;;
49942;SDS011;36011;53.362;58.948;2023-03-01T01:56:44;9.67;;;6.57;;
49942;SDS011;36011;53.362;58.948;2023-03-01T01:59:51;6.35;;;4.68;;
49942;SDS011;36011;53.362;58.948;2023-03-01T02:03:01;9.40;;;6.00;;
49942;SDS011;36011;53.362;58.948;2023-03-01T02:09:34;12.35;;;7.45;;
49942;SDS011;36011;53.362;58.948;2023-03-01T02:12:38;10.93;;;7.30;;
49942;SDS011;36011;53.362;58.948;2023-03-01T02:16:08;11.70;;;7.82;;
49942;SDS011;36011;53.362;58.948;2023-03-01T02:19:17;12.48;;;6.78;;
49942;SDS011;36011;53.362;58.948;2023-03-01T02:22:35;13.18;;;7.15;;
49942;SDS011;36011;53.362;58.948;2023-03-01T02:25:47;13.70;;;8.52;;
49942;SDS011;36011;53.362;58.948;2023-03-01T02:28:54;12.45;;;8.35;;
49942;SDS011;36011;53.362;58.948;2023-03-01T02:31:58;15.18;;;9.70;;
49942;SDS011;36011;53.362;58.948;2023-03-01T02:35:04;14.43;;;8.40;;
49942;SDS011;36011;53.362;58.948;2023-03-01T02:38:07;10.93;;;5.82;;
49942;SDS011;36011;53.362;58.948;2023-03-01T02:41:12;11.15;;;5.30;;
49942;SDS011;36011;53.362;58.948;2023-03-01T02:44:20;14.60;;;7.85;;
49942;SDS011;36011;53.362;58.948;2023-03-01T02:47:22;10.48;;;6.90;;
49942;SDS011;36011;53.362;58.948;2023-03-01T02:56:37;10.98;;;6.20;;
49942;SDS011;36011;53.362;58.948;2023-03-01T02:59:41;10.00;;;6.53;;
49942;SDS011;36011;53.362;58.948;2023-03-01T03:02:48;11.18;;;7.88;;
49942;SDS011;36011;53.362;58.948;2023-03-01T03:05:51;10.05;;;7.60;;
49942;SDS011;36011;53.362;58.948;2023-03-01T03:08:54;9.70;;;6.53;;
49942;SDS011;36011;53.362;58.948;2023-03-01T03:11:58;9.05;;;5.25;;
49942;SDS011;36011;53.362;58.948;2023-03-01T03:15:06;10.35;;;6.50;;
49942;SDS011;36011;53.362;58.948;2023-03-01T03:18:10;7.40;;;5.55;;
49942;SDS011;36011;53.362;58.948;2023-03-01T03:21:17;4.13;;;3.38;;
49942;SDS011;36011;53.362;58.948;2023-03-01T03:27:23;8.40;;;4.88;;
49942;SDS011;36011;53.362;58.948;2023-03-01T03:30:30;7.78;;;5.03;;
49942;SDS011;36011;53.362;58.948;2023-03-01T03:33:34;6.43;;;4.63;;
49942;SDS011;36011;53.362;58.948;2023-03-01T03:36:39;7.45;;;4.35;;
49942;SDS011;36011;53.362;58.948;2023-03-01T03:42:47;5.13;;;3.50;;
49942;SDS011;36011;53.362;58.948;2023-03-01T03:45:52;8.15;;;5.53;;
49942;SDS011;36011;53.362;58.948;2023-03-01T03:48:59;8.35;;;4.47;;
49942;SDS011;36011;53.362;58.948;2023-03-01T03:52:04;8.88;;;5.30;;
49942;SDS011;36011;53.362;58.948;2023-03-01T03:55:15;9.02;;;6.22;;
49942;SDS011;36011;53.362;58.948;2023-03-01T03:58:22;6.15;;;4.05;;
49942;SDS011;36011;53.362;58.948;2023-03-01T04:01:26;7.20;;;5.38;;
49942;SDS011;36011;53.362;58.948;2023-03-01T04:04:31;8.10;;;5.90;;
49942;SDS011;36011;53.362;58.948;2023-03-01T04:07:36;9.55;;;5.93;;
49942;SDS011;36011;53.362;58.948;2023-03-01T04:10:44;4.97;;;3.72;;
49942;SDS011;36011;53.362;58.948;2023-03-01T04:13:50;9.00;;;5.25;;
49942;SDS011;36011;53.362;58.948;2023-03-01T04:16:55;7.35;;;4.68;;
49942;SDS011;36011;53.362;58.948;2023-03-01T04:20:00;9.70;;;5.68;;
49942;SDS011;36011;53.362;58.948;2023-03-01T04:23:08;8.80;;;5.70;;
49942;SDS011;36011;53.362;58.948;2023-03-01T04:26:13;10.85;;;6.22;;
49942;SDS011;36011;53.362;58.948;2023-03-01T04:32:21;7.25;;;4.13;;
49942;SDS011;36011;53.362;58.948;2023-03-01T04:35:26;10.30;;;6.57;;
49942;SDS011;36011;53.362;58.948;2023-03-01T04:38:31;5.70;;;3.22;;
49942;SDS011;36011;53.362;58.948;2023-03-01T04:41:36;9.15;;;4.35;;
49942;SDS011;36011;53.362;58.948;2023-03-01T04:44:42;8.65;;;4.55;;
49942;SDS011;36011;53.362;58.948;2023-03-01T04:50:49;8.40;;;4.97;;
49942;SDS011;36011;53.362;58.948;2023-03-01T04:53:54;12.10;;;6.30;;
49942;SDS011;36011;53.362;58.948;2023-03-01T04:57:00;10.25;;;5.60;;
49942;SDS011;36011;53.362;58.948;2023-03-01T05:00:06;11.95;;;7.18;;
49942;SDS011;36011;53.362;58.948;2023-03-01T05:03:25;10.23;;;5.90;;
49942;SDS011;36011;53.362;58.948;2023-03-01T05:06:30;10.73;;;7.07;;
49942;SDS011;36011;53.362;58.948;2023-03-01T05:09:36;8.77;;;5.75;;
49942;SDS011;36011;53.362;58.948;2023-03-01T05:12:41;9.27;;;6.15;;
49942;SDS011;36011;53.362;58.948;2023-03-01T05:15:45;9.88;;;6.30;;
49942;SDS011;36011;53.362;58.948;2023-03-01T05:18:52;8.50;;;4.70;;
49942;SDS011;36011;53.362;58.948;2023-03-01T05:21:57;9.23;;;5.32;;
49942;SDS011;36011;53.362;58.948;2023-03-01T05:25:04;9.52;;;6.30;;
49942;SDS011;36011;53.362;58.948;2023-03-01T05:28:12;10.77;;;6.20;;
49942;SDS011;36011;53.362;58.948;2023-03-01T05:31:18;8.77;;;5.68;;
49942;SDS011;36011;53.362;58.948;2023-03-01T05:34:33;8.60;;;5.45;;
49942;SDS011;36011;53.362;58.948;2023-03-01T05:37:43;9.13;;;5.40;;
49942;SDS011;36011;53.362;58.948;2023-03-01T05:40:50;4.00;;;2.78;;
49942;SDS011;36011;53.362;58.948;2023-03-01T05:43:55;9.15;;;3.95;;
49942;SDS011;36011;53.362;58.948;2023-03-01T05:47:00;7.07;;;4.38;;
49942;SDS011;36011;53.362;58.948;2023-03-01T05:50:05;5.80;;;3.83;;
49942;SDS011;36011;53.362;58.948;2023-03-01T05:56:11;8.88;;;6.13;;
49942;SDS011;36011;53.362;58.948;2023-03-01T05:59:15;5.65;;;4.20;;
49942;SDS011;36011;53.362;58.948;2023-03-01T06:02:21;9.15;;;5.32;;
49942;SDS011;36011;53.362;58.948;2023-03-01T06:05:25;5.80;;;3.50;;
49942;SDS011;36011;53.362;58.948;2023-03-01T06:08:31;8.23;;;4.70;;
49942;SDS011;36011;53.362;58.948;2023-03-01T06:11:35;9.75;;;5.47;;
49942;SDS011;36011;53.362;58.948;2023-03-01T06:14:41;9.32;;;6.15;;
49942;SDS011;36011;53.362;58.948;2023-03-01T06:17:45;8.25;;;5.38;;
49942;SDS011;36011;53.362;58.948;2023-03-01T06:20:54;5.90;;;4.72;;
49942;SDS011;36011;53.362;58.948;2023-03-01T06:24:00;5.93;;;4.53;;
49942;SDS011;36011;53.362;58.948;2023-03-01T06:27:04;7.13;;;5.53;;
49942;SDS011;36011;53.362;58.948;2023-03-01T06:30:10;9.23;;;5.72;;
49942;SDS011;36011;53.362;58.948;2023-03-01T06:33:16;7.30;;;4.13;;
49942;SDS011;36011;53.362;58.948;2023-03-01T06:36:26;5.50;;;4.40;;
49942;SDS011;36011;53.362;58.948;2023-03-01T06:39:31;7.03;;;4.60;;
49942;SDS011;36011;53.362;58.948;2023-03-01T06:42:36;4.70;;;3.53;;
49942;SDS011;36011;53.362;58.948;2023-03-01T06:45:42;7.63;;;4.70;;
49942;SDS011;36011;53.362;58.948;2023-03-01T06:48:47;3.05;;;2.50;;
49942;SDS011;36011;53.362;58.948;2023-03-01T06:51:50;5.30;;;3.80;;
49942;SDS011;36011;53.362;58.948;2023-03-01T06:54:55;5.65;;;3.88;;
49942;SDS011;36011;53.362;58.948;2023-03-01T06:58:00;7.82;;;4.90;;
49942;SDS011;36011;53.362;58.948;2023-03-01T07:01:06;7.15;;;5.13;;
49942;SDS011;36011;53.362;58.948;2023-03-01T07:04:12;6.90;;;5.20;;
49942;SDS011;36011;53.362;58.948;2023-03-01T07:07:17;8.00;;;5.43;;
49942;SDS011;36011;53.362;58.948;2023-03-01T07:10:23;8.50;;;5.97;;
49942;SDS011;36011;53.362;58.948;2023-03-01T07:13:28;8.02;;;5.35;;
49942;SDS011;36011;53.362;58.948;2023-03-01T07:16:33;6.72;;;4.43;;
49942;SDS011;36011;53.362;58.948;2023-03-01T07:22:40;5.85;;;4.15;;
49942;SDS011;36011;53.362;58.948;2023-03-01T07:25:50;7.18;;;5.43;;
49942;SDS011;36011;53.362;58.948;2023-03-01T07:28:58;8.15;;;5.60;;
49942;SDS011;36011;53.362;58.948;2023-03-01T07:32:04;5.78;;;4.18;;
49942;SDS011;36011;53.362;58.948;2023-03-01T07:35:10;9.35;;;6.90;;
49942;SDS011;36011;53.362;58.948;2023-03-01T07:38:14;10.90;;;6.85;;
49942;SDS011;36011;53.362;58.948;2023-03-01T07:41:18;9.20;;;6.03;;
49942;SDS011;36011;53.362;58.948;2023-03-01T07:44:23;10.23;;;6.53;;
49942;SDS011;36011;53.362;58.948;2023-03-01T07:47:28;5.97;;;4.82;;
49942;SDS011;36011;53.362;58.948;2023-03-01T07:50:33;10.68;;;6.28;;
49942;SDS011;36011;53.362;58.948;2023-03-01T07:53:38;6.43;;;3.75;;
49942;SDS011;36011;53.362;58.948;2023-03-01T07:56:43;7.93;;;6.20;;
49942;SDS011;36011;53.362;58.948;2023-03-01T07:59:47;9.68;;;6.68;;
49942;SDS011;36011;53.362;58.948;2023-03-01T08:02:52;9.55;;;6.03;;
49942;SDS011;36011;53.362;58.948;2023-03-01T08:06:03;7.05;;;4.90;;
49942;SDS011;36011;53.362;58.948;2023-03-01T08:09:09;4.10;;;3.30;;
49942;SDS011;36011;53.362;58.948;2023-03-01T08:12:14;5.13;;;4.15;;
49942;SDS011;36011;53.362;58.948;2023-03-01T08:15:21;3.67;;;3.03;;
49942;SDS011;36011;53.362;58.948;2023-03-01T08:18:25;3.70;;;3.03;;
49942;SDS011;36011;53.362;58.948;2023-03-01T08:21:29;3.47;;;2.90;;
49942;SDS011;36011;53.362;58.948;2023-03-01T08:24:34;4.40;;;2.05;;
49942;SDS011;36011;53.362;58.948;2023-03-01T08:27:39;2.95;;;2.10;;
49942;SDS011;36011;53.362;58.948;2023-03-01T08:30:44;2.58;;;2.10;;
49942;SDS011;36011;53.362;58.948;2023-03-01T08:33:49;4.18;;;2.83;;
49942;SDS011;36011;53.362;58.948;2023-03-01T08:36:59;2.78;;;2.00;;
49942;SDS011;36011;53.362;58.948;2023-03-01T08:40:04;2.80;;;2.20;;
49942;SDS011;36011;53.362;58.948;2023-03-01T08:43:10;2.35;;;1.92;;
49942;SDS011;36011;53.362;58.948;2023-03-01T08:46:15;3.03;;;2.08;;
49942;SDS011;36011;53.362;58.948;2023-03-01T08:49:20;2.40;;;1.98;;
49942;SDS011;36011;53.362;58.948;2023-03-01T08:52:25;2.75;;;2.13;;
49942;SDS011;36011;53.362;58.948;2023-03-01T08:55:32;2.90;;;2.13;;
49942;SDS011;36011;53.362;58.948;2023-03-01T08:58:37;3.17;;;2.30;;
49942;SDS011;36011;53.362;58.948;2023-03-01T09:01:43;4.90;;;2.83;;
49942;SDS011;36011;53.362;58.948;2023-03-01T09:04:48;2.90;;;2.30;;
49942;SDS011;36011;53.362;58.948;2023-03-01T09:07:52;3.13;;;2.40;;
49942;SDS011;36011;53.362;58.948;2023-03-01T09:10:57;4.22;;;2.72;;
49942;SDS011;36011;53.362;58.948;2023-03-01T09:14:04;3.08;;;2.63;;
49942;SDS011;36011;53.362;58.948;2023-03-01T09:17:09;3.20;;;1.75;;
49942;SDS011;36011;53.362;58.948;2023-03-01T09:20:14;2.38;;;2.17;;
49942;SDS011;36011;53.362;58.948;2023-03-01T09:23:20;3.00;;;1.88;;
49942;SDS011;36011;53.362;58.948;2023-03-01T09:26:25;3.40;;;1.65;;
49942;SDS011;36011;53.362;58.948;2023-03-01T09:29:30;2.58;;;1.85;;
49942;SDS011;36011;53.362;58.948;2023-03-01T09:32:35;2.80;;;2.50;;
49942;SDS011;36011;53.362;58.948;2023-03-01T09:35:40;2.85;;;2.10;;
49942;SDS011;36011;53.362;58.948;2023-03-01T09:38:49;2.80;;;2.30;;
49942;SDS011;36011;53.362;58.948;2023-03-01T09:42:00;2.90;;;2.28;;
49942;SDS011;36011;53.362;58.948;2023-03-01T09:45:11;3.10;;;2.60;;
49942;SDS011;36011;53.362;58.948;2023-03-01T09:48:23;2.40;;;2.15;;
49942;SDS011;36011;53.362;58.948;2023-03-01T09:51:34;2.40;;;2.20;;
49942;SDS011;36011;53.362;58.948;2023-03-01T09:54:40;1.90;;;1.80;;
49942;SDS011;36011;53.362;58.948;2023-03-01T10:00:59;2.67;;;2.28;;
49942;SDS011;36011;53.362;58.948;2023-03-01T10:07:43;3.78;;;2.40;;
49942;SDS011;36011;53.362;58.948;2023-03-01T10:11:20;3.95;;;2.25;;
49942;SDS011;36011;53.362;58.948;2023-03-01T10:14:39;2.92;;;2.63;;
49942;SDS011;36011;53.362;58.948;2023-03-01T10:17:57;3.15;;;2.67;;
49942;SDS011;36011;53.362;58.948;2023-03-01T10:21:15;4.10;;;3.47;;
49942;SDS011;36011;53.362;58.948;2023-03-01T10:24:22;3.10;;;2.80;;
49942;SDS011;36011;53.362;58.948;2023-03-01T10:27:53;2.60;;;2.40;;
49942;SDS011;36011;53.362;58.948;2023-03-01T10:31:04;3.83;;;3.40;;
49942;SDS011;36011;53.362;58.948;2023-03-01T10:37:25;3.33;;;2.60;;
49942;SDS011;36011;53.362;58.948;2023-03-01T10:40:31;3.30;;;3.00;;
49942;SDS011;36011;53.362;58.948;2023-03-01T10:43:48;3.88;;;2.90;;
49942;SDS011;36011;53.362;58.948;2023-03-01T10:47:00;2.20;;;2.00;;
49942;SDS011;36011;53.362;58.948;2023-03-01T10:50:05;3.88;;;2.83;;
49942;SDS011;36011;53.362;58.948;2023-03-01T10:56:45;2.42;;;2.22;;
49942;SDS011;36011;53.362;58.948;2023-03-01T10:59:51;3.10;;;2.90;;
49942;SDS011;36011;53.362;58.948;2023-03-01T11:03:11;3.75;;;3.10;;
49942;SDS011;36011;53.362;58.948;2023-03-01T11:06:21;2.33;;;2.08;;
49942;SDS011;36011;53.362;58.948;2023-03-01T11:09:23;2.42;;;1.40;;
49942;SDS011;36011;53.362;58.948;2023-03-01T11:12:32;3.70;;;2.30;;
49942;SDS011;36011;53.362;58.948;2023-03-01T11:15:35;2.47;;;2.28;;
49942;SDS011;36011;53.362;58.948;2023-03-01T11:18:36;3.15;;;1.95;;
49942;SDS011;36011;53.362;58.948;2023-03-01T11:21:47;1.77;;;1.65;;
49942;SDS011;36011;53.362;58.948;2023-03-01T11:24:54;2.90;;;1.90;;
49942;SDS011;36011;53.362;58.948;2023-03-01T11:28:02;2.50;;;1.90;;
49942;SDS011;36011;53.362;58.948;2023-03-01T11:31:08;2.65;;;2.15;;
49942;SDS011;36011;53.362;58.948;2023-03-01T11:34:17;2.45;;;2.15;;
49942;SDS011;36011;53.362;58.948;2023-03-01T11:37:37;2.53;;;2.33;;
49942;SDS011;36011;53.362;58.948;2023-03-01T11:40:49;1.75;;;1.63;;
49942;SDS011;36011;53.362;58.948;2023-03-01T11:43:59;2.78;;;2.28;;
49942;SDS011;36011;53.362;58.948;2023-03-01T11:50:44;2.90;;;2.10;;
49942;SDS011;36011;53.362;58.948;2023-03-01T11:57:04;3.67;;;2.33;;
49942;SDS011;36011;53.362;58.948;2023-03-01T12:03:30;3.22;;;2.35;;
49942;SDS011;36011;53.362;58.948;2023-03-01T12:07:00;3.97;;;2.47;;
49942;SDS011;36011;53.362;58.948;2023-03-01T12:23:46;2.08;;;1.83;;
49942;SDS011;36011;53.362;58.948;2023-03-01T12:47:39;2.50;;;1.83;;
49942;SDS011;36011;53.362;58.948;2023-03-01T12:50:53;2.83;;;2.28;;
49942;SDS011;36011;53.362;58.948;2023-03-01T12:53:58;3.50;;;2.42;;
49942;SDS011;36011;53.362;58.948;2023-03-01T12:57:30;3.00;;;2.47;;
49942;SDS011;36011;53.362;58.948;2023-03-01T13:00:52;3.72;;;2.20;;
49942;SDS011;36011;53.362;58.948;2023-03-01T13:04:06;5.13;;;2.40;;
49942;SDS011;36011;53.362;58.948;2023-03-01T13:10:41;3.67;;;2.13;;
49942;SDS011;36011;53.362;58.948;2023-03-01T13:13:51;2.55;;;2.30;;
49942;SDS011;36011;53.362;58.948;2023-03-01T13:16:55;2.53;;;1.95;;
49942;SDS011;36011;53.362;58.948;2023-03-01T13:19:57;2.60;;;1.92;;
49942;SDS011;36011;53.362;58.948;2023-03-01T13:23:09;2.92;;;2.10;;
49942;SDS011;36011;53.362;58.948;2023-03-01T13:26:25;2.53;;;2.10;;
49942;SDS011;36011;53.362;58.948;2023-03-01T13:29:29;2.55;;;1.95;;
49942;SDS011;36011;53.362;58.948;2023-03-01T13:32:49;2.67;;;1.60;;
49942;SDS011;36011;53.362;58.948;2023-03-01T13:35:54;3.30;;;1.95;;
49942;SDS011;36011;53.362;58.948;2023-03-01T13:39:13;7.55;;;3.53;;
49942;SDS011;36011;53.362;58.948;2023-03-01T13:42:42;2.10;;;1.95;;
49942;SDS011;36011;53.362;58.948;2023-03-01T13:45:49;3.10;;;2.33;;
49942;SDS011;36011;53.362;58.948;2023-03-01T13:48:52;8.73;;;5.00;;
49942;SDS011;36011;53.362;58.948;2023-03-01T13:51:57;4.85;;;2.70;;
49942;SDS011;36011;53.362;58.948;2023-03-01T13:55:01;1.67;;;1.35;;
49942;SDS011;36011;53.362;58.948;2023-03-01T13:58:29;4.00;;;2.50;;
49942;SDS011;36011;53.362;58.948;2023-03-01T14:01:33;2.63;;;1.75;;
49942;SDS011;36011;53.362;58.948;2023-03-01T14:04:39;4.32;;;2.67;;
49942;SDS011;36011;53.362;58.948;2023-03-01T14:07:41;3.20;;;2.05;;
49942;SDS011;36011;53.362;58.948;2023-03-01T14:10:44;6.22;;;3.55;;
49942;SDS011;36011;53.362;58.948;2023-03-01T14:13:54;5.82;;;3.60;;
49942;SDS011;36011;53.362;58.948;2023-03-01T14:17:35;5.50;;;3.83;;
49942;SDS011;36011;53.362;58.948;2023-03-01T14:20:57;7.53;;;4.30;;
49942;SDS011;36011;53.362;58.948;2023-03-01T14:24:01;3.53;;;2.72;;
49942;SDS011;36011;53.362;58.948;2023-03-01T14:27:12;5.43;;;3.35;;
49942;SDS011;36011;53.362;58.948;2023-03-01T14:30:19;5.65;;;3.60;;
49942;SDS011;36011;53.362;58.948;2023-03-01T14:33:33;4.65;;;3.58;;
49942;SDS011;36011;53.362;58.948;2023-03-01T14:36:42;5.22;;;3.38;;
49942;SDS011;36011;53.362;58.948;2023-03-01T14:39:43;5.93;;;2.80;;
49942;SDS011;36011;53.362;58.948;2023-03-01T14:42:47;8.50;;;5.13;;
49942;SDS011;36011;53.362;58.948;2023-03-01T14:45:55;6.10;;;4.22;;
49942;SDS011;36011;53.362;58.948;2023-03-01T14:52:33;4.50;;;2.40;;
49942;SDS011;36011;53.362;58.948;2023-03-01T14:55:40;3.67;;;2.65;;
49942;SDS011;36011;53.362;58.948;2023-03-01T14:58:51;3.67;;;2.35;;
49942;SDS011;36011;53.362;58.948;2023-03-01T15:02:01;5.10;;;3.50;;
49942;SDS011;36011;53.362;58.948;2023-03-01T15:05:03;6.53;;;3.45;;
49942;SDS011;36011;53.362;58.948;2023-03-01T15:08:11;2.40;;;1.92;;
49942;SDS011;36011;53.362;58.948;2023-03-01T15:11:23;5.78;;;3.85;;
49942;SDS011;36011;53.362;58.948;2023-03-01T15:14:41;6.70;;;4.55;;
49942;SDS011;36011;53.362;58.948;2023-03-01T15:17:53;7.25;;;4.72;;
49942;SDS011;36011;53.362;58.948;2023-03-01T15:21:05;3.85;;;3.15;;
49942;SDS011;36011;53.362;58.948;2023-03-01T15:24:19;6.85;;;4.45;;
49942;SDS011;36011;53.362;58.948;2023-03-01T15:27:24;6.85;;;2.90;;
49942;SDS011;36011;53.362;58.948;2023-03-01T15:30:31;4.32;;;3.08;;
49942;SDS011;36011;53.362;58.948;2023-03-01T15:33:37;9.07;;;4.07;;
49942;SDS011;36011;53.362;58.948;2023-03-01T15:36:44;5.80;;;3.67;;
49942;SDS011;36011;53.362;58.948;2023-03-01T15:39:53;6.30;;;3.65;;
49942;SDS011;36011;53.362;58.948;2023-03-01T15:42:58;4.30;;;3.22;;
49942;SDS011;36011;53.362;58.948;2023-03-01T15:46:11;4.25;;;3.17;;
49942;SDS011;36011;53.362;58.948;2023-03-01T15:52:43;4.10;;;2.97;;
49942;SDS011;36011;53.362;58.948;2023-03-01T15:55:48;3.95;;;2.80;;
49942;SDS011;36011;53.362;58.948;2023-03-01T15:58:57;7.38;;;3.85;;
49942;SDS011;36011;53.362;58.948;2023-03-01T16:01:59;5.80;;;2.80;;
49942;SDS011;36011;53.362;58.948;2023-03-01T16:05:26;5.55;;;4.10;;
49942;SDS011;36011;53.362;58.948;2023-03-01T16:08:31;5.40;;;3.95;;
49942;SDS011;36011;53.362;58.948;2023-03-01T16:11:32;6.38;;;4.53;;
49942;SDS011;36011;53.362;58.948;2023-03-01T16:14:37;7.90;;;4.00;;
49942;SDS011;36011;53.362;58.948;2023-03-01T16:17:41;6.03;;;4.10;;
49942;SDS011;36011;53.362;58.948;2023-03-01T16:20:42;7.25;;;5.00;;
49942;SDS011;36011;53.362;58.948;2023-03-01T16:23:44;8.60;;;5.53;;
49942;SDS011;36011;53.362;58.948;2023-03-01T16:26:51;4.82;;;3.58;;
49942;SDS011;36011;53.362;58.948;2023-03-01T16:29:58;5.88;;;4.25;;
49942;SDS011;36011;53.362;58.948;2023-03-01T16:33:02;6.68;;;2.95;;
49942;SDS011;36011;53.362;58.948;2023-03-01T16:36:11;6.50;;;4.65;;
49942;SDS011;36011;53.362;58.948;2023-03-01T16:39:13;9.27;;;5.27;;
49942;SDS011;36011;53.362;58.948;2023-03-01T16:42:17;9.93;;;4.88;;
49942;SDS011;36011;53.362;58.948;2023-03-01T16:45:21;10.20;;;5.10;;
49942;SDS011;36011;53.362;58.948;2023-03-01T16:48:22;9.05;;;5.10;;
49942;SDS011;36011;53.362;58.948;2023-03-01T16:51:29;7.88;;;4.07;;
49942;SDS011;36011;53.362;58.948;2023-03-01T16:54:31;8.98;;;4.85;;
49942;SDS011;36011;53.362;58.948;2023-03-01T16:57:36;9.95;;;4.63;;
49942;SDS011;36011;53.362;58.948;2023-03-01T17:00:42;7.28;;;4.65;;
49942;SDS011;36011;53.362;58.948;2023-03-01T17:03:46;8.63;;;4.63;;
49942;SDS011;36011;53.362;58.948;2023-03-01T17:06:52;9.65;;;5.03;;
49942;SDS011;36011;53.362;58.948;2023-03-01T17:09:58;11.88;;;6.22;;
49942;SDS011;36011;53.362;58.948;2023-03-01T17:13:00;10.68;;;5.70;;
49942;SDS011;36011;53.362;58.948;2023-03-01T17:16:08;6.03;;;4.20;;
49942;SDS011;36011;53.362;58.948;2023-03-01T17:19:14;13.60;;;5.88;;
49942;SDS011;36011;53.362;58.948;2023-03-01T17:22:20;6.43;;;4.85;;
49942;SDS011;36011;53.362;58.948;2023-03-01T17:25:21;8.70;;;4.75;;
49942;SDS011;36011;53.362;58.948;2023-03-01T17:31:33;3.47;;;2.72;;
49942;SDS011;36011;53.362;58.948;2023-03-01T17:34:37;4.85;;;3.05;;
49942;SDS011;36011;53.362;58.948;2023-03-01T17:37:38;5.03;;;3.70;;
49942;SDS011;36011;53.362;58.948;2023-03-01T17:40:50;5.18;;;4.15;;
49942;SDS011;36011;53.362;58.948;2023-03-01T17:43:56;6.28;;;4.05;;
49942;SDS011;36011;53.362;58.948;2023-03-01T17:47:00;4.30;;;3.47;;
49942;SDS011;36011;53.362;58.948;2023-03-01T17:50:08;2.60;;;2.00;;
49942;SDS011;36011;53.362;58.948;2023-03-01T17:53:09;7.70;;;3.72;;
49942;SDS011;36011;53.362;58.948;2023-03-01T17:56:13;5.93;;;3.75;;
49942;SDS011;36011;53.362;58.948;2023-03-01T17:59:17;5.53;;;3.53;;
49942;SDS011;36011;53.362;58.948;2023-03-01T18:02:23;5.40;;;3.28;;
49942;SDS011;36011;53.362;58.948;2023-03-01T18:05:32;5.53;;;3.75;;
49942;SDS011;36011;53.362;58.948;2023-03-01T18:08:35;6.22;;;3.65;;
49942;SDS011;36011;53.362;58.948;2023-03-01T18:11:39;5.68;;;4.28;;
49942;SDS011;36011;53.362;58.948;2023-03-01T18:14:46;8.27;;;5.72;;
49942;SDS011;36011;53.362;58.948;2023-03-01T18:17:53;5.97;;;3.97;;
49942;SDS011;36011;53.362;58.948;2023-03-01T18:20:58;5.60;;;3.85;;
49942;SDS011;36011;53.362;58.948;2023-03-01T18:24:00;6.65;;;3.80;;
49942;SDS011;36011;53.362;58.948;2023-03-01T18:27:02;5.78;;;3.83;;
49942;SDS011;36011;53.362;58.948;2023-03-01T18:30:04;4.28;;;2.72;;
49942;SDS011;36011;53.362;58.948;2023-03-01T18:33:08;4.80;;;3.33;;
49942;SDS011;36011;53.362;58.948;2023-03-01T18:36:20;4.72;;;3.25;;
49942;SDS011;36011;53.362;58.948;2023-03-01T18:39:25;6.25;;;2.97;;
49942;SDS011;36011;53.362;58.948;2023-03-01T18:42:26;3.90;;;2.42;;
49942;SDS011;36011;53.362;58.948;2023-03-01T18:45:30;5.90;;;3.65;;
49942;SDS011;36011;53.362;58.948;2023-03-01T18:48:34;2.78;;;2.58;;
49942;SDS011;36011;53.362;58.948;2023-03-01T18:51:41;6.32;;;3.28;;
49942;SDS011;36011;53.362;58.948;2023-03-01T18:54:47;3.80;;;2.97;;
49942;SDS011;36011;53.362;58.948;2023-03-01T18:57:53;7.05;;;3.90;;
49942;SDS011;36011;53.362;58.948;2023-03-01T19:00:57;3.60;;;2.65;;
49942;SDS011;36011;53.362;58.948;2023-03-01T19:04:06;5.75;;;3.50;;
49942;SDS011;36011;53.362;58.948;2023-03-01T19:07:12;6.03;;;4.05;;
49942;SDS011;36011;53.362;58.948;2023-03-01T19:10:13;4.38;;;2.85;;
49942;SDS011;36011;53.362;58.948;2023-03-01T19:13:18;7.35;;;4.60;;
49942;SDS011;36011;53.362;58.948;2023-03-01T19:16:20;4.82;;;2.83;;
49942;SDS011;36011;53.362;58.948;2023-03-01T19:19:31;4.25;;;2.28;;
49942;SDS011;36011;53.362;58.948;2023-03-01T19:22:33;3.13;;;2.03;;
49942;SDS011;36011;53.362;58.948;2023-03-01T19:25:40;5.75;;;3.85;;
49942;SDS011;36011;53.362;58.948;2023-03-01T19:28:44;6.72;;;3.83;;
49942;SDS011;36011;53.362;58.948;2023-03-01T19:31:48;3.97;;;2.83;;
49942;SDS011;36011;53.362;58.948;2023-03-01T19:34:52;6.55;;;3.40;;
49942;SDS011;36011;53.362;58.948;2023-03-01T19:37:55;4.25;;;2.45;;
49942;SDS011;36011;53.362;58.948;2023-03-01T19:41:03;3.95;;;2.33;;
49942;SDS011;36011;53.362;58.948;2023-03-01T19:44:25;4.38;;;2.85;;
49942;SDS011;36011;53.362;58.948;2023-03-01T19:47:26;3.45;;;2.55;;
49942;SDS011;36011;53.362;58.948;2023-03-01T19:50:30;7.70;;;4.35;;
49942;SDS011;36011;53.362;58.948;2023-03-01T19:56:37;6.40;;;4.80;;
49942;SDS011;36011;53.362;58.948;2023-03-01T19:59:39;9.27;;;3.28;;
49942;SDS011;36011;53.362;58.948;2023-03-01T20:02:42;6.65;;;2.60;;
49942;SDS011;36011;53.362;58.948;2023-03-01T20:05:43;3.85;;;2.63;;
49942;SDS011;36011;53.362;58.948;2023-03-01T20:08:48;4.55;;;2.78;;